createdAt,value
2023-05-15T00:00:20.734Z,71.91
2023-05-15T00:02:51.284Z,71.50
2023-05-15T00:05:20.285Z,71.68
2023-05-15T00:07:49.059Z,71.97
2023-05-15T00:10:17.828Z,72.20
2023-05-15T00:12:46.557Z,71.93
2023-05-15T00:15:15.358Z,71.89
2023-05-15T00:17:44.082Z,72.17
2023-05-15T00:20:14.717Z,72.50
2023-05-15T00:22:43.478Z,72.94
2023-05-15T00:25:12.187Z,73.85
2023-05-15T00:27:40.911Z,73.00
2023-05-15T00:30:11.208Z,72.90
2023-05-15T00:32:41.139Z,72.79
2023-05-15T00:35:10.398Z,72.78
2023-05-15T00:37:40.582Z,72.86
2023-05-15T00:40:14.057Z,73.65
2023-05-15T00:42:43.614Z,73.14
2023-05-15T00:45:14.121Z,72.93
2023-05-15T00:47:44.776Z,74.05
2023-05-15T00:50:14.349Z,74.88
2023-05-15T00:52:45.143Z,74.64
2023-05-15T00:55:13.897Z,74.99
2023-05-15T00:57:45.286Z,74.48
2023-05-15T01:00:18.442Z,74.80
2023-05-15T01:02:47.549Z,74.74
2023-05-15T01:05:16.625Z,74.34
2023-05-15T01:08:02.474Z,75.55
2023-05-15T01:10:31.341Z,75.16
2023-05-15T01:13:02.717Z,74.19
2023-05-15T01:15:31.431Z,73.80
2023-05-15T01:18:00.263Z,73.97
2023-05-15T01:20:35.455Z,74.12
2023-05-15T01:23:25.177Z,73.83
2023-05-15T01:26:44.407Z,74.33
2023-05-15T01:29:24.368Z,74.14
2023-05-15T01:32:00.854Z,73.60
2023-05-15T01:34:44.042Z,73.33
2023-05-15T01:37:15.694Z,73.06
2023-05-15T01:39:48.905Z,72.92
2023-05-15T01:42:20.972Z,73.17
2023-05-15T01:44:56.638Z,73.73
2023-05-15T01:47:36.210Z,74.60
2023-05-15T01:50:11.289Z,74.39
2023-05-15T01:52:46.314Z,74.38
2023-05-15T01:55:17.257Z,74.22
2023-05-15T01:57:49.773Z,73.80
2023-05-15T02:00:20.849Z,74.03
2023-05-15T02:02:51.802Z,74.12
2023-05-15T02:05:21.251Z,73.58
2023-05-15T02:07:51.113Z,73.89
2023-05-15T02:10:21.277Z,73.84
2023-05-15T02:12:51.792Z,73.52
2023-05-15T02:15:26.464Z,73.35
2023-05-15T02:17:56.861Z,73.56
2023-05-15T02:20:25.668Z,73.60
2023-05-15T02:22:54.385Z,73.62
2023-05-15T02:25:39.768Z,73.69
2023-05-15T02:28:20.799Z,73.45
2023-05-15T02:31:00.435Z,73.44
2023-05-15T02:33:43.895Z,73.45
2023-05-15T02:36:19.517Z,73.50
2023-05-15T02:38:53.272Z,73.48
2023-05-15T02:41:24.363Z,73.56
2023-05-15T02:43:56.365Z,73.90
2023-05-15T02:46:28.149Z,73.99
2023-05-15T02:48:57.295Z,73.95
2023-05-15T02:51:26.740Z,74.53
2023-05-15T02:53:57.632Z,74.96
2023-05-15T02:56:26.457Z,75.02
2023-05-15T02:58:55.670Z,75.16
2023-05-15T03:01:25.857Z,74.80
2023-05-15T03:03:54.677Z,74.65
2023-05-15T03:06:23.480Z,74.82
2023-05-15T03:08:52.183Z,74.84
2023-05-15T03:11:21.443Z,74.57
2023-05-15T03:13:50.118Z,74.29
2023-05-15T03:16:18.817Z,74.57
2023-05-15T03:18:49.101Z,75.12
2023-05-15T03:21:17.847Z,74.89
2023-05-15T03:23:46.574Z,75.39
2023-05-15T03:26:15.366Z,75.27
2023-05-15T03:28:45.087Z,75.44
2023-05-15T03:31:14.447Z,75.50
2023-05-15T03:33:43.372Z,75.59
2023-05-15T03:36:13.448Z,75.53
2023-05-15T03:38:44.026Z,75.46
2023-05-15T03:41:12.856Z,74.99
2023-05-15T03:43:41.536Z,75.47
2023-05-15T03:46:10.291Z,75.32
2023-05-15T03:48:42.716Z,74.92
2023-05-15T03:51:15.257Z,75.04
2023-05-15T03:53:49.373Z,75.79
2023-05-15T03:56:20.091Z,75.83
2023-05-15T03:59:32.273Z,75.42
2023-05-15T04:02:16.714Z,75.85
2023-05-15T04:04:45.843Z,75.89
2023-05-15T04:07:31.484Z,75.76
2023-05-15T04:12:42.584Z,76.67
2023-05-15T04:15:20.217Z,77.25
2023-05-15T04:17:54.528Z,77.89
2023-05-15T04:20:25.978Z,77.76
2023-05-15T04:22:58.845Z,77.89
2023-05-15T04:25:30.966Z,77.63
2023-05-15T04:28:00.027Z,78.18
2023-05-15T04:30:28.995Z,78.30
2023-05-15T04:33:35.005Z,77.57
2023-05-15T04:36:05.364Z,77.84
2023-05-15T04:38:37.539Z,77.35
2023-05-15T04:41:06.273Z,78.24
2023-05-15T04:43:38.810Z,77.86
2023-05-15T04:46:10.872Z,77.97
2023-05-15T04:48:39.930Z,77.57
2023-05-15T04:51:16.326Z,77.45
2023-05-15T04:53:46.473Z,76.86
2023-05-15T04:56:15.153Z,76.78
2023-05-15T04:58:44.090Z,77.08
2023-05-15T05:01:23.638Z,77.03
2023-05-15T05:03:53.549Z,76.93
2023-05-15T05:06:22.441Z,77.06
2023-05-15T05:08:52.444Z,77.11
2023-05-15T05:11:48.464Z,76.60
2023-05-15T05:14:17.866Z,76.48
2023-05-15T05:16:47.023Z,75.79
2023-05-15T05:19:15.798Z,75.48
2023-05-15T05:21:44.631Z,75.29
2023-05-15T05:24:14.761Z,75.05
2023-05-15T05:26:45.871Z,75.68
2023-05-15T05:29:14.627Z,76.60
2023-05-15T05:31:43.313Z,76.45
2023-05-15T05:34:12.004Z,76.43
2023-05-15T05:36:40.802Z,76.27
2023-05-15T05:39:09.483Z,75.65
2023-05-15T05:41:39.570Z,75.97
2023-05-15T05:44:08.243Z,75.21
2023-05-15T05:46:37.156Z,75.10
2023-05-15T05:49:06.059Z,75.28
2023-05-15T05:51:37.079Z,75.47
2023-05-15T05:54:06.500Z,74.78
2023-05-15T05:56:35.374Z,74.25
2023-05-15T05:59:06.567Z,74.27
2023-05-15T06:01:37.489Z,74.36
2023-05-15T06:04:06.932Z,74.10
2023-05-15T06:06:35.808Z,74.02
2023-05-15T06:09:05.683Z,75.09
2023-05-15T06:11:34.915Z,74.65
2023-05-15T06:14:05.047Z,74.65
2023-05-15T06:16:33.839Z,74.39
2023-05-15T06:19:02.764Z,74.11
2023-05-15T06:21:31.579Z,74.03
2023-05-15T06:24:00.443Z,73.76
2023-05-15T06:26:29.216Z,73.43
2023-05-15T06:28:57.901Z,73.46
2023-05-15T06:31:28.093Z,73.38
2023-05-15T06:33:56.951Z,73.29
2023-05-15T06:36:25.664Z,73.37
2023-05-15T06:38:54.404Z,74.74
2023-05-15T06:41:23.146Z,72.65
2023-05-15T06:43:51.832Z,73.10
2023-05-15T06:46:20.800Z,72.74
2023-05-15T06:48:50.916Z,72.16
2023-05-15T06:51:19.589Z,70.82
2023-05-15T06:53:48.532Z,70.09
2023-05-15T06:56:17.229Z,69.82
2023-05-15T06:58:46.056Z,70.10
2023-05-15T07:01:14.798Z,71.83
2023-05-15T07:03:44.161Z,69.88
2023-05-15T07:06:14.253Z,68.90
2023-05-15T07:08:43.172Z,67.98
2023-05-15T07:11:11.880Z,68.37
2023-05-15T07:13:40.599Z,67.90
2023-05-15T07:16:09.398Z,67.08
2023-05-15T07:18:38.251Z,67.25
2023-05-15T07:21:07.610Z,67.46
2023-05-15T07:23:37.746Z,65.85
2023-05-15T07:26:08.766Z,67.53
2023-05-15T07:28:40.852Z,67.49
2023-05-15T07:31:09.959Z,68.20
2023-05-15T07:33:38.853Z,67.47
2023-05-15T07:36:08.332Z,66.89
2023-05-15T07:38:38.476Z,67.90
2023-05-15T07:41:07.209Z,66.48
2023-05-15T07:43:35.960Z,65.66
2023-05-15T07:46:04.671Z,64.93
2023-05-15T07:48:33.451Z,65.42
2023-05-15T07:51:02.482Z,64.34
2023-05-15T07:53:34.848Z,64.53
2023-05-15T07:56:05.540Z,63.77
2023-05-15T07:58:35.628Z,64.85
2023-05-15T08:01:04.332Z,63.78
2023-05-15T08:03:34.118Z,64.41
2023-05-15T08:06:02.940Z,63.71
2023-05-15T08:08:31.819Z,64.51
2023-05-15T08:11:00.499Z,64.22
2023-05-15T08:13:30.658Z,63.28
2023-05-15T08:15:59.480Z,64.30
2023-05-15T08:18:28.167Z,64.87
2023-05-15T08:20:56.841Z,64.58
2023-05-15T08:23:25.673Z,63.54
2023-05-15T08:25:54.381Z,62.79
2023-05-15T08:28:23.081Z,63.96
2023-05-15T08:30:53.264Z,64.04
2023-05-15T08:33:22.031Z,63.79
2023-05-15T08:35:51.958Z,62.13
2023-05-15T08:38:20.769Z,63.05
2023-05-15T08:40:54.193Z,62.60
2023-05-15T08:43:24.699Z,62.96
2023-05-15T08:45:56.887Z,62.76
2023-05-15T08:48:30.686Z,62.21
2023-05-15T08:51:01.636Z,62.64
2023-05-15T08:53:31.928Z,62.16
2023-05-15T08:56:03.739Z,63.31
2023-05-15T08:58:34.231Z,62.16
2023-05-15T09:01:05.384Z,63.88
2023-05-15T09:03:34.190Z,63.47
2023-05-15T09:06:04.520Z,63.17
2023-05-15T09:08:35.569Z,64.91
2023-05-15T09:11:07.961Z,62.75
2023-05-15T09:13:36.736Z,63.67
2023-05-15T09:16:08.931Z,63.59
2023-05-15T09:18:40.152Z,63.33
2023-05-15T09:21:26.193Z,63.66
2023-05-15T09:23:56.410Z,61.70
2023-05-15T09:26:25.884Z,61.64
2023-05-15T09:29:04.134Z,61.64
2023-05-15T09:31:34.890Z,61.60
2023-05-15T09:34:06.571Z,60.90
2023-05-15T09:36:35.293Z,60.74
2023-05-15T09:39:04.474Z,61.64
2023-05-15T09:41:33.153Z,61.21
2023-05-15T09:44:02.090Z,60.93
2023-05-15T09:46:31.332Z,61.16
2023-05-15T09:49:01.665Z,61.59
2023-05-15T09:51:30.424Z,61.68
2023-05-15T09:53:59.657Z,59.43
2023-05-15T09:56:28.511Z,57.60
2023-05-15T09:58:58.879Z,56.62
2023-05-15T10:01:28.627Z,56.65
2023-05-15T10:04:04.145Z,54.03
2023-05-15T10:06:37.717Z,54.42
2023-05-15T10:09:07.347Z,53.75
2023-05-15T10:11:38.821Z,54.21
2023-05-15T10:14:09.384Z,53.09
2023-05-15T10:16:40.599Z,52.14
2023-05-15T10:19:13.408Z,51.80
2023-05-15T10:21:43.426Z,52.71
2023-05-15T10:24:13.709Z,53.06
2023-05-15T10:26:44.594Z,53.74
2023-05-15T10:29:15.301Z,53.23
2023-05-15T10:31:44.728Z,51.88
2023-05-15T10:34:15.530Z,51.18
2023-05-15T10:36:45.114Z,51.42
2023-05-15T10:39:14.620Z,50.13
2023-05-15T10:41:46.414Z,51.89
2023-05-15T10:44:17.960Z,52.76
2023-05-15T10:46:47.033Z,52.46
2023-05-15T10:49:17.938Z,53.39
2023-05-15T10:51:46.661Z,51.54
2023-05-15T10:54:16.623Z,51.96
2023-05-15T10:56:45.489Z,51.28
2023-05-15T10:59:14.233Z,49.92
2023-05-15T11:01:43.358Z,51.90
2023-05-15T11:04:14.706Z,50.45
2023-05-15T11:06:47.853Z,47.33
2023-05-15T11:09:36.717Z,47.69
2023-05-15T11:12:15.041Z,50.47
2023-05-15T11:15:05.718Z,61.02
2023-05-15T11:17:38.488Z,69.53
2023-05-15T11:20:08.457Z,71.51
2023-05-15T11:23:13.680Z,77.79
2023-05-15T11:25:44.821Z,77.68
2023-05-15T11:28:24.757Z,78.57
2023-05-15T11:30:54.924Z,79.04
2023-05-15T11:33:25.352Z,80.47
2023-05-15T11:36:01.232Z,78.84
2023-05-15T11:38:30.031Z,78.91
2023-05-15T11:41:03.578Z,80.01
2023-05-15T11:43:34.119Z,80.18
2023-05-15T11:46:09.391Z,81.30
2023-05-15T11:48:43.348Z,81.38
2023-05-15T11:51:20.371Z,81.64
2023-05-15T11:53:51.797Z,81.84
2023-05-15T11:56:22.881Z,79.65
2023-05-15T11:58:52.904Z,79.21
2023-05-15T12:01:21.936Z,78.37
2023-05-15T12:03:54.409Z,79.82
2023-05-15T12:06:24.872Z,76.94
2023-05-15T12:08:55.221Z,78.64
2023-05-15T12:11:29.018Z,76.37
2023-05-15T12:14:01.029Z,77.72
2023-05-15T12:16:30.244Z,73.65
2023-05-15T12:19:01.338Z,66.92
2023-05-15T12:21:30.226Z,69.18
2023-05-15T12:24:07.699Z,69.25
2023-05-15T12:26:37.339Z,67.74
2023-05-15T12:29:07.101Z,65.50
2023-05-15T12:31:37.454Z,66.11
2023-05-15T12:34:10.938Z,64.82
2023-05-15T12:36:42.905Z,65.29
2023-05-15T12:39:12.972Z,65.28
2023-05-15T12:41:41.951Z,64.83
2023-05-15T12:44:18.954Z,64.80
2023-05-15T12:46:48.272Z,59.07
2023-05-15T12:49:24.947Z,60.40
2023-05-15T12:51:54.004Z,61.31
2023-05-15T12:54:25.407Z,60.23
2023-05-15T12:56:57.007Z,54.84
2023-05-15T12:59:26.476Z,54.29
2023-05-15T13:01:55.332Z,53.86
2023-05-15T13:04:25.573Z,54.28
2023-05-15T13:06:54.386Z,49.49
2023-05-15T13:09:24.052Z,51.01
2023-05-15T13:11:52.786Z,51.77
2023-05-15T13:14:23.496Z,49.85
2023-05-15T13:16:52.911Z,44.11
2023-05-15T13:19:21.695Z,43.40
2023-05-15T13:21:54.314Z,40.97
2023-05-15T13:24:23.328Z,41.82
2023-05-15T13:26:52.660Z,40.61
2023-05-15T13:29:21.379Z,40.23
2023-05-15T13:31:50.281Z,40.96
2023-05-15T13:34:19.085Z,37.53
2023-05-15T13:36:47.921Z,38.62
2023-05-15T13:39:19.379Z,40.89
2023-05-15T13:41:48.620Z,41.32
2023-05-15T13:47:17.585Z,35.45
2023-05-15T13:49:47.538Z,33.67
2023-05-15T13:52:17.350Z,34.85
2023-05-15T13:54:49.197Z,37.17
2023-05-15T13:57:20.408Z,35.54
2023-05-15T13:59:52.782Z,39.33
2023-05-15T14:02:23.531Z,39.76
2023-05-15T14:04:57.226Z,40.98
2023-05-15T14:07:29.438Z,44.01
2023-05-15T14:10:00.235Z,45.05
2023-05-15T14:15:50.556Z,44.87
2023-05-15T14:18:19.537Z,39.28
2023-05-15T14:20:48.513Z,35.99
2023-05-15T14:23:23.023Z,31.87
2023-05-15T14:25:53.278Z,31.72
2023-05-15T14:32:27.131Z,27.77
2023-05-15T14:34:59.820Z,28.51
2023-05-15T14:37:41.198Z,31.05
2023-05-15T14:41:35.471Z,33.72
2023-05-15T14:44:07.454Z,36.91
2023-05-15T14:46:37.965Z,35.40
2023-05-15T14:49:07.111Z,36.73
2023-05-15T14:51:36.289Z,39.86
2023-05-15T14:54:05.800Z,42.72
2023-05-15T14:57:10.076Z,42.46
2023-05-15T15:00:06.737Z,44.90
2023-05-15T15:02:38.822Z,45.95
2023-05-15T15:05:09.328Z,47.07
2023-05-15T15:08:02.047Z,43.18
2023-05-15T15:11:47.361Z,43.55
2023-05-15T15:14:20.368Z,45.60
2023-05-15T15:17:16.731Z,47.07
2023-05-15T15:19:45.449Z,50.17
2023-05-15T15:22:18.352Z,50.00
2023-05-15T15:24:47.113Z,50.62
2023-05-15T15:27:18.461Z,50.17
2023-05-15T15:29:48.083Z,51.56
2023-05-15T15:32:18.863Z,52.80
2023-05-15T15:34:48.568Z,51.69
2023-05-15T15:37:17.590Z,53.18
2023-05-15T15:39:47.050Z,52.82
2023-05-15T15:42:16.833Z,53.62
2023-05-15T15:44:45.965Z,53.02
2023-05-15T15:47:17.596Z,55.24
2023-05-15T15:49:51.574Z,55.69
2023-05-15T15:52:21.522Z,47.08
2023-05-15T15:54:50.380Z,45.14
2023-05-15T15:57:20.674Z,46.58
2023-05-15T15:59:50.068Z,46.34
2023-05-15T16:02:19.078Z,45.36
2023-05-15T16:04:51.062Z,46.17
2023-05-15T16:07:19.756Z,45.40
2023-05-15T16:09:56.885Z,44.36
2023-05-15T16:12:37.197Z,44.88
2023-05-15T16:15:20.748Z,43.33
2023-05-15T16:17:54.959Z,43.22
2023-05-15T16:20:25.633Z,44.72
2023-05-15T16:22:54.763Z,45.22
2023-05-15T16:25:23.635Z,45.91
2023-05-15T16:27:56.965Z,46.21
2023-05-15T16:30:33.636Z,46.53
2023-05-15T16:33:14.797Z,45.71
2023-05-15T16:35:45.625Z,48.20
2023-05-15T16:38:16.040Z,48.19
2023-05-15T16:40:52.128Z,49.88
2023-05-15T16:43:23.614Z,50.35
2023-05-15T16:46:00.050Z,51.81
2023-05-15T16:48:28.931Z,53.47
2023-05-15T16:50:59.142Z,55.18
2023-05-15T16:53:29.843Z,54.95
2023-05-15T16:55:58.722Z,53.27
2023-05-15T16:58:27.537Z,53.91
2023-05-15T17:00:56.638Z,52.26
2023-05-15T17:03:26.336Z,51.12
2023-05-15T17:05:54.999Z,55.59
2023-05-15T17:08:25.046Z,56.38
2023-05-15T17:10:54.471Z,55.54
2023-05-15T17:13:23.276Z,56.21
2023-05-15T17:15:52.087Z,57.23
2023-05-15T17:18:21.046Z,57.71
2023-05-15T17:20:49.916Z,57.39
2023-05-15T17:23:19.177Z,56.25
2023-05-15T17:25:50.256Z,56.03
2023-05-15T17:28:19.070Z,54.28
2023-05-15T17:30:49.056Z,56.78
2023-05-15T17:33:18.283Z,58.74
2023-05-15T17:35:47.732Z,59.21
2023-05-15T17:38:16.361Z,60.16
2023-05-15T17:40:45.065Z,59.91
2023-05-15T17:43:15.239Z,61.87
2023-05-15T17:45:43.919Z,62.63
2023-05-15T17:48:12.583Z,62.73
2023-05-15T17:50:42.109Z,62.98
2023-05-15T17:53:10.814Z,64.83
2023-05-15T17:55:39.475Z,64.43
2023-05-15T17:58:08.323Z,65.31
2023-05-15T18:00:38.753Z,65.84
2023-05-15T18:03:08.295Z,65.47
2023-05-15T18:05:37.063Z,66.36
2023-05-15T18:08:06.894Z,65.81
2023-05-15T18:10:35.542Z,65.23
2023-05-15T18:13:04.180Z,64.65
2023-05-15T18:15:35.167Z,65.19
2023-05-15T18:18:05.990Z,65.45
2023-05-15T18:20:35.078Z,64.95
2023-05-15T18:23:03.813Z,65.51
2023-05-15T18:25:36.798Z,64.60
2023-05-15T18:28:05.647Z,65.04
2023-05-15T18:30:36.399Z,66.30
2023-05-15T18:33:06.743Z,66.81
2023-05-15T18:35:37.284Z,66.60
2023-05-15T18:38:07.204Z,66.04
2023-05-15T18:40:36.151Z,66.08
2023-05-15T18:43:05.057Z,66.36
2023-05-15T18:45:33.850Z,66.92
2023-05-15T18:48:03.149Z,66.87
2023-05-15T18:50:33.392Z,68.32
2023-05-15T18:53:02.654Z,68.34
2023-05-15T18:55:32.375Z,68.43
2023-05-15T18:58:01.030Z,69.20
2023-05-15T19:03:02.620Z,68.65
2023-05-15T19:05:34.129Z,68.66
2023-05-15T19:08:03.951Z,68.50
2023-05-15T19:10:32.679Z,67.39
2023-05-15T19:13:01.334Z,68.17
2023-05-15T19:15:30.284Z,68.60
2023-05-15T19:17:59.070Z,69.02
2023-05-15T19:20:27.962Z,68.97
2023-05-15T19:22:58.185Z,69.09
2023-05-15T19:25:27.084Z,69.36
2023-05-15T19:27:56.209Z,69.05
2023-05-15T19:30:25.423Z,68.34
2023-05-15T19:32:54.233Z,68.09
2023-05-15T19:35:22.988Z,68.43
2023-05-15T19:37:51.653Z,68.75
2023-05-15T19:40:21.852Z,68.48
2023-05-15T19:42:50.520Z,68.50
2023-05-15T19:45:19.184Z,68.27
2023-05-15T19:47:47.901Z,67.71
2023-05-15T19:50:17.022Z,68.49
2023-05-15T19:52:45.793Z,68.25
2023-05-15T19:55:14.623Z,68.89
2023-05-15T19:57:46.073Z,68.38
2023-05-15T20:00:16.074Z,68.66
2023-05-15T20:02:44.791Z,69.38
2023-05-15T20:05:13.494Z,69.14
2023-05-15T20:07:43.202Z,69.63
2023-05-15T20:10:12.123Z,69.80
2023-05-15T20:12:40.800Z,69.56
2023-05-15T20:15:13.337Z,69.94
2023-05-15T20:17:42.230Z,69.66
2023-05-15T20:20:12.376Z,69.43
2023-05-15T20:22:43.606Z,69.66
2023-05-15T20:25:12.671Z,69.69
2023-05-15T20:27:41.299Z,70.27
2023-05-15T20:30:13.042Z,69.99
2023-05-15T20:32:41.829Z,69.41
2023-05-15T20:35:12.279Z,69.95
2023-05-15T20:37:41.059Z,70.50
2023-05-15T20:40:12.862Z,69.99
2023-05-15T20:42:41.627Z,70.75
2023-05-15T20:45:12.608Z,69.23
2023-05-15T20:47:41.544Z,68.51
2023-05-15T20:50:11.525Z,68.95
2023-05-15T20:52:40.403Z,69.04
2023-05-15T20:55:16.256Z,68.72
2023-05-15T20:57:46.113Z,66.53
2023-05-15T21:00:19.053Z,65.85
2023-05-15T21:02:48.406Z,66.42
2023-05-15T21:05:17.189Z,65.23
2023-05-15T21:07:45.880Z,64.37
2023-05-15T21:10:14.548Z,64.47
2023-05-15T21:12:43.357Z,64.44
2023-05-15T21:15:12.519Z,64.65
2023-05-15T21:17:42.651Z,65.09
2023-05-15T21:20:12.547Z,65.34
2023-05-15T21:22:41.376Z,65.02
2023-05-15T21:25:11.997Z,64.54
2023-05-15T21:27:42.096Z,64.91
2023-05-15T21:30:12.128Z,64.47
2023-05-15T21:32:42.457Z,64.54
2023-05-15T21:35:11.462Z,65.08
2023-05-15T21:37:40.129Z,65.75
2023-05-15T21:40:10.591Z,65.93
2023-05-15T21:42:39.228Z,65.99
2023-05-15T21:45:09.333Z,66.78
2023-05-15T21:47:38.132Z,66.48
2023-05-15T21:50:09.363Z,67.11
2023-05-15T21:52:38.023Z,66.10
2023-05-15T21:55:08.271Z,66.32
2023-05-15T21:57:36.994Z,66.73
2023-05-15T22:00:08.298Z,66.29
2023-05-15T22:02:37.170Z,66.03
2023-05-15T22:05:07.950Z,66.03
2023-05-15T22:07:36.599Z,66.11
2023-05-15T22:10:06.180Z,66.04
2023-05-15T22:12:34.905Z,65.95
2023-05-15T22:15:03.545Z,66.29
2023-05-15T22:17:32.152Z,66.11
2023-05-15T22:20:07.926Z,66.68
2023-05-15T22:22:39.135Z,67.21
2023-05-15T22:25:09.235Z,67.04
2023-05-15T22:27:37.867Z,66.21
2023-05-15T22:30:08.673Z,66.27
2023-05-15T22:32:37.388Z,66.78
2023-05-15T22:35:08.400Z,67.17
2023-05-15T22:37:40.741Z,67.46
2023-05-15T22:40:12.785Z,68.07
2023-05-15T22:42:41.880Z,68.03
2023-05-15T22:45:11.897Z,68.31
2023-05-15T22:47:40.552Z,68.16
2023-05-15T22:50:10.859Z,68.00
2023-05-15T22:52:41.033Z,68.55
2023-05-15T22:55:12.688Z,68.08
2023-05-15T22:57:41.423Z,68.77
2023-05-15T23:00:11.341Z,68.85
2023-05-15T23:02:42.601Z,68.89
2023-05-15T23:05:12.965Z,68.69
2023-05-15T23:07:43.005Z,68.71
2023-05-15T23:10:12.293Z,68.45
2023-05-15T23:12:41.434Z,68.91
2023-05-15T23:15:11.466Z,69.26
2023-05-15T23:17:41.547Z,69.31
2023-05-15T23:20:12.854Z,69.21
2023-05-15T23:22:43.009Z,69.43
2023-05-15T23:25:12.060Z,69.40
2023-05-15T23:27:40.798Z,70.18
2023-05-15T23:30:11.035Z,69.65
2023-05-15T23:32:39.693Z,69.77
2023-05-15T23:35:09.188Z,70.04
2023-05-15T23:37:38.007Z,69.79
2023-05-15T23:40:09.847Z,70.04
2023-05-15T23:42:38.485Z,70.10
2023-05-15T23:45:09.137Z,70.40
2023-05-15T23:47:37.790Z,70.34
2023-05-15T23:50:08.734Z,70.15
2023-05-15T23:52:37.388Z,70.20
2023-05-15T23:55:08.811Z,70.41
2023-05-15T23:57:37.508Z,70.99
